Time;durP1;ratioP1;P1;durP2;ratioP2;P2;SDS_P1;SDS_P2;PMS_P1;PMS_P2;Temp;Humidity;BMP_temperature;BMP_pressure;BME280_temperature;BME280_humidity;BME280_pressure;Samples;Min_cycle;Max_cycle;Signal;HPM_P1;HPM_P2
2021/03/23 00:04:59;;;;;;;27.90;11.93;;;;;;;1.37;73.37;100859.97;3295477;88;31983;-77
2021/03/23 00:10:00;;;;;;;27.33;10.70;;;;;;;1.33;73.12;100866.55;3293387;87;98693;-78
2021/03/23 00:15:01;;;;;;;27.20;9.80;;;;;;;1.25;73.23;100857.77;3294185;87;26554;-77
2021/03/23 00:20:07;;;;;;;21.30;7.90;;;;;;;1.15;73.17;100857.20;3283760;86;98585;-77
2021/03/23 00:25:10;;;;;;;21.17;9.13;;;;;;;1.13;73.31;100850.72;3287309;88;31753;-78
2021/03/23 00:30:13;;;;;;;20.97;8.00;;;;;;;1.11;73.45;100859.69;3280030;88;98528;-77
2021/03/23 00:35:15;;;;;;;21.70;6.77;;;;;;;1.16;73.65;100869.08;3286338;88;31722;-77
2021/03/23 00:40:20;;;;;;;24.30;8.80;;;;;;;1.17;73.96;100861.22;3282427;87;99252;-77
2021/03/23 00:45:20;;;;;;;19.67;8.80;;;;;;;1.21;74.49;100858.69;3285057;88;32497;-77
2021/03/23 00:50:21;;;;;;;18.37;7.80;;;;;;;1.29;74.46;100853.35;3281569;87;98646;-77
2021/03/23 00:55:22;;;;;;;16.10;6.23;;;;;;;1.35;74.65;100848.06;3225159;90;32227;-77
2021/03/23 01:00:25;;;;;;;17.40;7.03;;;;;;;1.42;75.19;100855.21;3274686;88;98590;-76
2021/03/23 01:05:30;;;;;;;20.83;8.33;;;;;;;1.51;74.94;100853.92;3276936;88;31773;-77
2021/03/23 01:10:34;;;;;;;19.97;6.50;;;;;;;1.63;74.96;100859.61;3281726;87;98082;-77
2021/03/23 01:15:34;;;;;;;23.23;8.47;;;;;;;1.73;74.71;100845.80;3279482;87;31846;-77
2021/03/23 01:20:35;;;;;;;16.48;7.25;;;;;;;1.82;74.79;100849.39;3284493;87;98466;-77
2021/03/23 01:25:36;;;;;;;15.50;6.73;;;;;;;1.89;74.95;100848.39;3293745;87;31953;-77
2021/03/23 01:30:37;;;;;;;18.83;7.03;;;;;;;1.96;74.83;100852.82;3282139;87;98406;-77
2021/03/23 01:35:38;;;;;;;16.97;6.60;;;;;;;2.03;74.86;100845.84;3289665;87;31975;-77
2021/03/23 01:40:40;;;;;;;17.77;6.77;;;;;;;2.12;74.88;100858.11;3283046;84;98284;-77
2021/03/23 01:45:44;;;;;;;21.40;7.40;;;;;;;2.09;75.06;100846.53;3279752;87;32349;-77
2021/03/23 01:50:49;;;;;;;23.95;7.67;;;;;;;2.22;75.28;100854.60;3241642;88;98411;-77
2021/03/23 01:55:51;;;;;;;19.80;7.07;;;;;;;2.35;75.27;100858.34;3276157;87;32697;-78
2021/03/23 02:00:53;;;;;;;17.57;6.47;;;;;;;2.49;75.26;100852.25;3286026;86;98803;-77
2021/03/23 02:06:04;;;;;;;15.43;6.53;;;;;;;2.63;75.52;100850.23;3338579;86;31818;-77
2021/03/23 02:11:04;;;;;;;20.67;7.20;;;;;;;2.78;75.37;100848.46;3329711;86;98400;-77
2021/03/23 02:16:11;;;;;;;17.23;6.43;;;;;;;2.84;75.35;100847.98;3337250;86;31773;-78
2021/03/23 02:21:19;;;;;;;14.70;6.47;;;;;;;2.89;75.19;100849.78;3334246;85;98279;-78
2021/03/23 02:26:28;;;;;;;13.17;5.47;;;;;;;2.87;75.75;100850.08;3316332;86;32573;-78
2021/03/23 02:31:41;;;;;;;15.78;6.17;;;;;;;2.89;75.59;100855.22;3330999;86;98033;-77
2021/03/23 02:36:45;;;;;;;16.07;5.53;;;;;;;2.91;75.88;100857.05;3337269;85;33221;-77
2021/03/23 02:41:47;;;;;;;22.70;6.07;;;;;;;2.96;76.16;100856.91;3326756;86;98340;-78
2021/03/23 02:46:50;;;;;;;15.83;5.50;;;;;;;3.03;76.49;100858.59;3331025;86;31785;-78
2021/03/23 02:51:54;;;;;;;17.30;5.63;;;;;;;3.17;76.72;100856.55;3335080;86;98188;-77
2021/03/23 02:56:57;;;;;;;14.67;5.60;;;;;;;3.35;76.63;100859.53;3290316;86;31756;-77
2021/03/23 03:01:59;;;;;;;13.60;5.33;;;;;;;3.52;76.75;100861.72;3323544;86;98378;-77
2021/03/23 03:07:03;;;;;;;14.97;7.03;;;;;;;3.62;76.78;100857.87;3341180;86;32629;-77
2021/03/23 03:12:09;;;;;;;14.13;5.17;;;;;;;3.65;76.80;100856.66;3309165;83;98444;-78
2021/03/23 03:17:10;;;;;;;17.60;6.00;;;;;;;3.64;76.92;100855.62;3269544;88;26036;-78
2021/03/23 03:22:13;;;;;;;17.60;6.57;;;;;;;3.64;77.10;100856.42;3220183;89;31867;-78
2021/03/23 03:27:19;;;;;;;15.87;5.87;;;;;;;3.63;77.31;100854.84;3295546;88;98447;-78
2021/03/23 03:32:21;;;;;;;12.93;5.73;;;;;;;3.65;77.64;100857.24;3298527;88;32420;-78
2021/03/23 03:37:23;;;;;;;15.10;5.97;;;;;;;3.68;78.00;100856.03;3272967;86;98564;-78
2021/03/23 03:42:24;;;;;;;13.37;5.43;;;;;;;3.79;78.26;100857.31;3302738;88;32532;-78
2021/03/23 03:47:25;;;;;;;13.30;5.70;;;;;;;3.92;78.17;100856.88;3227359;89;98780;-77
2021/03/23 03:52:30;;;;;;;15.57;5.60;;;;;;;4.08;78.31;100862.06;3244896;89;31765;-77
2021/03/23 03:57:32;;;;;;;17.20;5.70;;;;;;;4.20;78.23;100867.67;3292113;86;98373;-77
2021/03/23 04:02:37;;;;;;;15.13;6.67;;;;;;;4.23;78.27;100874.63;3262431;88;31756;-77
2021/03/23 04:07:39;;;;;;;18.43;7.90;;;;;;;4.17;78.44;100871.03;3211846;89;99051;-77
2021/03/23 04:12:43;;;;;;;15.40;6.50;;;;;;;4.11;78.81;100874.50;3312641;86;31836;-77
2021/03/23 04:17:44;;;;;;;16.93;6.75;;;;;;;4.06;79.13;100881.47;3334118;84;98568;-77
2021/03/23 04:22:46;;;;;;;20.47;6.77;;;;;;;4.01;79.63;100880.27;3340905;86;31780;-77
2021/03/23 04:27:47;;;;;;;14.98;5.75;;;;;;;4.01;80.01;100876.73;3343738;85;98342;-77
2021/03/23 04:32:52;;;;;;;12.77;5.90;;;;;;;4.08;80.02;100881.13;3307055;86;31811;-78
2021/03/23 04:37:54;;;;;;;14.30;5.62;;;;;;;4.15;80.27;100884.18;3324393;86;98859;-78
2021/03/23 04:42:55;;;;;;;14.80;5.67;;;;;;;4.23;80.41;100895.06;3320920;86;31762;-78
2021/03/23 04:47:56;;;;;;;15.97;5.73;;;;;;;4.33;80.66;100891.19;3335496;86;98384;-78
2021/03/23 04:52:57;;;;;;;20.37;6.33;;;;;;;4.44;80.50;100894.62;3312314;86;31796;-78
2021/03/23 04:57:59;;;;;;;15.50;6.27;;;;;;;4.55;80.41;100904.59;3338887;86;98536;-78
2021/03/23 05:03:00;;;;;;;18.77;7.37;;;;;;;4.61;80.44;100904.66;3335661;86;31850;-78
2021/03/23 05:08:01;;;;;;;20.93;8.07;;;;;;;4.54;80.52;100900.27;3332616;86;98585;-78
2021/03/23 05:13:07;;;;;;;20.03;8.73;;;;;;;4.46;80.47;100907.34;3319223;86;32341;-78
2021/03/23 05:18:11;;;;;;;20.83;9.83;;;;;;;4.39;80.78;100907.05;3273124;88;98303;-78
2021/03/23 05:23:13;;;;;;;20.53;9.43;;;;;;;4.35;81.08;100915.63;3280080;89;31774;-78
2021/03/23 05:28:15;;;;;;;21.03;9.63;;;;;;;4.33;81.52;100921.16;3241953;89;98319;-78
2021/03/23 05:33:17;;;;;;;20.03;7.93;;;;;;;4.37;81.57;100917.45;3262055;88;32016;-77
2021/03/23 05:38:20;;;;;;;19.47;7.73;;;;;;;4.44;81.82;100925.95;3258675;86;98980;-78
2021/03/23 05:43:40;;;;;;;17.50;7.30;;;;;;;4.54;82.01;100932.98;3286085;87;31837;-78
2021/03/23 05:48:59;;;;;;;17.53;7.13;;;;;;;4.66;82.36;100932.55;3277675;85;98964;-77
2021/03/23 05:54:22;;;;;;;20.37;9.40;;;;;;;4.72;82.82;100938.06;3232430;89;31827;-76
2021/03/23 05:59:35;;;;;;;17.67;7.27;;;;;;;4.87;82.48;100943.55;3275047;86;98339;-77
2021/03/23 06:04:44;;;;;;;16.93;7.47;;;;;;;4.84;82.64;100948.27;3233277;89;31999;-77
2021/03/23 06:09:45;;;;;;;18.40;7.93;;;;;;;4.77;83.20;100950.71;3278637;88;98346;-77
2021/03/23 06:15:37;;;;;;;15.70;7.43;;;;;;;4.74;83.33;100952.74;3296389;87;32173;-78
2021/03/23 06:21:02;;;;;;;23.13;9.30;;;;;;;4.74;83.31;100946.70;3295559;87;97333;-77
2021/03/23 06:26:20;;;;;;;29.13;15.70;;;;;;;4.69;83.80;100960.52;3288919;87;26003;-78
2021/03/23 06:32:19;;;;;;;22.07;10.80;;;;;;;4.65;84.27;100964.22;3206812;89;98271;-78
2021/03/23 06:37:28;;;;;;;24.53;10.77;;;;;;;4.71;84.61;100969.19;3343470;84;97995;-79
2021/03/23 06:42:50;;;;;;;23.77;12.67;;;;;;;4.80;85.08;100971.31;3341341;86;31731;-79
2021/03/23 06:47:52;;;;;;;27.95;13.98;;;;;;;4.86;85.07;100978.19;3338191;86;98776;-78
2021/03/23 06:53:13;;;;;;;19.20;9.80;;;;;;;4.97;85.38;100971.83;3340526;86;31828;-79
2021/03/23 06:58:33;;;;;;;20.47;8.93;;;;;;;5.11;85.32;100975.13;3283044;87;98834;-79
2021/03/23 07:03:40;;;;;;;21.40;9.63;;;;;;;5.21;85.58;100975.59;3286021;88;32220;-78
2021/03/23 07:08:40;;;;;;;18.10;9.77;;;;;;;5.37;85.75;100984.82;3275073;86;98669;-78
2021/03/23 07:13:43;;;;;;;19.37;10.03;;;;;;;5.41;85.92;100980.87;3267175;87;31838;-78
2021/03/23 07:18:47;;;;;;;18.17;10.10;;;;;;;5.45;85.81;100980.45;3241208;88;98739;-77
2021/03/23 07:24:09;;;;;;;20.37;9.70;;;;;;;5.46;85.90;100983.41;3248883;89;32253;-78
2021/03/23 07:29:24;;;;;;;19.00;10.03;;;;;;;5.48;85.79;100989.33;3288978;88;98557;-77
2021/03/23 07:34:36;;;;;;;19.37;9.07;;;;;;;5.46;86.10;100987.50;3294742;88;31729;-77
2021/03/23 07:39:54;;;;;;;15.00;8.35;;;;;;;5.43;86.58;100990.33;3242135;88;98547;-78
2021/03/23 07:45:20;;;;;;;15.30;8.20;;;;;;;5.50;87.38;100994.70;3255679;88;31692;-77
2021/03/23 07:50:34;;;;;;;15.43;7.27;;;;;;;5.58;87.38;100995.78;3246019;88;98704;-79
2021/03/23 07:55:35;;;;;;;19.93;9.53;;;;;;;5.71;87.61;100992.00;3216577;89;31681;-79
2021/03/23 08:00:59;;;;;;;24.40;12.57;;;;;;;5.89;87.40;100998.42;3210678;90;98575;-76
2021/03/23 08:06:33;;;;;;;20.47;10.23;;;;;;;6.01;87.47;101005.91;3246120;89;32001;-76
2021/03/23 08:12:18;;;;;;;24.10;11.20;;;;;;;6.11;87.47;101016.44;3212780;89;98989;-77
2021/03/23 08:18:16;;;;;;;23.03;13.13;;;;;;;6.15;87.34;101023.63;3250160;88;99050;-77
2021/03/23 08:23:35;;;;;;;22.57;12.27;;;;;;;6.31;87.24;101027.37;3338230;87;31826;-77
2021/03/23 08:29:00;;;;;;;21.02;11.83;;;;;;;6.32;87.22;101037.75;3330118;87;98618;-78
2021/03/23 08:34:22;;;;;;;22.00;11.60;;;;;;;6.34;87.27;101040.35;3337202;87;32111;-78
2021/03/23 08:39:36;;;;;;;32.60;12.73;;;;;;;6.42;87.66;101035.40;3327342;87;98938;-78
2021/03/23 08:44:45;;;;;;;21.47;11.67;;;;;;;6.51;87.53;101040.80;3339524;86;31787;-78
2021/03/23 08:49:47;;;;;;;24.92;11.30;;;;;;;6.55;87.74;101039.78;3330479;87;99033;-78
2021/03/23 08:54:52;;;;;;;20.03;10.73;;;;;;;6.71;88.07;101046.81;3285604;88;32329;-78
2021/03/23 08:59:54;;;;;;;24.25;9.53;;;;;;;6.89;87.78;101059.19;3331475;86;99215;-79
2021/03/23 09:04:58;;;;;;;18.53;10.10;;;;;;;7.13;87.33;101060.05;3342536;87;31848;-77
2021/03/23 09:10:00;;;;;;;14.58;8.35;;;;;;;7.39;87.33;101059.20;3336652;86;98924;-77
2021/03/23 09:15:17;;;;;;;17.17;9.77;;;;;;;7.59;86.29;101064.36;3339377;86;32329;-77
2021/03/23 09:20:39;;;;;;;18.30;9.10;;;;;;;7.81;85.89;101067.42;3334148;86;98683;-77
2021/03/23 09:26:01;;;;;;;16.57;9.37;;;;;;;7.91;85.16;101072.45;3345061;86;31940;-76
2021/03/23 09:31:09;;;;;;;26.43;11.37;;;;;;;8.14;85.16;101072.23;3344125;86;98365;-78
2021/03/23 09:36:18;;;;;;;16.70;8.70;;;;;;;8.22;84.27;101075.98;3338767;86;31819;-78
2021/03/23 09:41:33;;;;;;;18.83;8.77;;;;;;;8.17;83.84;101072.89;3334644;86;98591;-78
2021/03/23 09:46:34;;;;;;;19.40;9.40;;;;;;;8.21;84.12;101068.35;3340299;86;32341;-77
2021/03/23 09:51:43;;;;;;;16.17;7.92;;;;;;;8.43;84.11;101069.77;3336597;86;98730;-77
2021/03/23 09:56:48;;;;;;;16.07;7.27;;;;;;;8.79;83.97;101079.27;3341927;86;32039;-77
2021/03/23 10:02:03;;;;;;;16.60;8.10;;;;;;;9.10;83.05;101071.91;3310380;86;98486;-76
2021/03/23 10:07:08;;;;;;;14.43;7.37;;;;;;;9.40;81.62;101074.50;3345338;86;25980;-76
2021/03/23 10:12:15;;;;;;;14.57;6.90;;;;;;;9.67;80.95;101073.63;3336110;86;98374;-78
2021/03/23 10:17:28;;;;;;;18.25;8.43;;;;;;;9.93;79.19;101071.09;3324396;86;99057;-78
2021/03/23 10:22:35;;;;;;;18.33;8.17;;;;;;;10.06;79.26;101077.32;3345147;86;31768;-77
2021/03/23 10:27:38;;;;;;;17.93;8.47;;;;;;;10.04;78.47;101074.92;3335101;86;99246;-77
2021/03/23 10:32:51;;;;;;;17.00;8.23;;;;;;;10.12;78.24;101072.57;3335746;86;32305;-77
2021/03/23 10:38:20;;;;;;;14.75;6.92;;;;;;;10.37;77.31;101071.16;3338358;86;98889;-78
2021/03/23 10:43:38;;;;;;;14.00;6.87;;;;;;;10.66;75.98;101063.74;3343405;86;31930;-77
2021/03/23 10:48:39;;;;;;;17.97;8.77;;;;;;;10.80;76.08;101068.14;3332819;86;99185;-76
2021/03/23 10:54:07;;;;;;;17.27;7.57;;;;;;;10.87;74.72;101064.75;3346003;86;31798;-76
2021/03/23 10:59:16;;;;;;;16.30;8.13;;;;;;;10.79;72.79;101068.53;3279823;87;98925;-75
2021/03/23 11:04:17;;;;;;;21.43;10.07;;;;;;;10.68;74.12;101072.42;3276374;88;31810;-76
2021/03/23 11:09:19;;;;;;;20.60;9.77;;;;;;;10.70;73.00;101070.13;3205556;89;99222;-77
2021/03/23 11:14:20;;;;;;;16.13;7.63;;;;;;;10.50;72.57;101071.83;3259835;88;31832;-77
2021/03/23 11:19:31;;;;;;;24.07;12.67;;;;;;;10.50;73.76;101072.64;3259188;89;98820;-76
2021/03/23 11:24:32;;;;;;;17.77;7.97;;;;;;;10.58;72.87;101070.24;3284661;88;31761;-78
2021/03/23 11:29:34;;;;;;;15.73;6.77;;;;;;;10.58;72.30;101068.87;3282673;86;99230;-77
2021/03/23 11:34:35;;;;;;;16.97;6.90;;;;;;;10.55;71.02;101071.55;3286673;88;32238;-76
2021/03/23 11:39:35;;;;;;;15.97;7.13;;;;;;;10.55;71.50;101082.56;3277159;87;98937;-78
2021/03/23 11:44:44;;;;;;;16.00;6.93;;;;;;;10.73;71.33;101074.08;3284456;88;31764;-78
2021/03/23 11:50:11;;;;;;;12.85;6.15;;;;;;;10.79;69.11;101074.04;3276065;87;99368;-77
2021/03/23 11:55:16;;;;;;;13.63;6.70;;;;;;;10.73;68.64;101074.08;3283069;88;32255;-75
2021/03/23 12:00:21;;;;;;;13.37;6.53;;;;;;;10.79;69.16;101073.44;3275158;87;98858;-77
2021/03/23 12:05:23;;;;;;;13.67;6.73;;;;;;;10.80;69.05;101068.14;3276912;88;26209;-78
2021/03/23 12:10:48;;;;;;;14.07;5.87;;;;;;;10.83;68.80;101079.02;3275416;88;99074;-77
2021/03/23 12:15:59;;;;;;;10.93;5.10;;;;;;;10.70;67.23;101077.02;3283660;87;32404;-76
2021/03/23 12:21:05;;;;;;;13.50;5.70;;;;;;;10.55;67.36;101081.99;3338671;84;98334;-77
2021/03/23 12:26:06;;;;;;;13.37;5.47;;;;;;;10.40;67.53;101093.03;3323182;86;31798;-76
2021/03/23 12:31:08;;;;;;;14.03;6.53;;;;;;;10.25;66.74;101098.80;3339806;86;99164;-77
2021/03/23 12:36:13;;;;;;;11.83;6.17;;;;;;;10.25;66.74;101098.80;3342899;86;32337;-76
2021/03/23 12:41:17;;;;;;;15.23;5.92;;;;;;;10.10;67.39;101108.47;3339164;86;98774;-75
2021/03/23 12:46:18;;;;;;;14.87;5.70;;;;;;;10.07;67.71;101106.41;3343069;86;32277;-77
2021/03/23 12:51:27;;;;;;;12.43;4.50;;;;;;;9.91;67.55;101107.78;3333718;84;98735;-77
2021/03/23 12:56:27;;;;;;;9.40;5.07;;;;;;;9.73;67.36;101109.30;3340149;86;32979;-76
2021/03/23 13:01:28;;;;;;;14.73;6.77;;;;;;;9.64;67.12;101105.92;3340103;86;98163;-77
2021/03/23 13:06:29;;;;;;;14.73;7.57;;;;;;;9.57;68.14;101113.19;3288252;88;31716;-77
2021/03/23 13:11:30;;;;;;;17.37;7.37;;;;;;;9.67;68.78;101105.23;3280250;87;98718;-77
2021/03/23 13:16:33;;;;;;;15.10;8.13;;;;;;;9.58;68.38;101102.41;3287625;88;31708;-76
2021/03/23 13:21:38;;;;;;;12.97;6.40;;;;;;;9.56;68.77;101109.66;3277323;87;98483;-79
2021/03/23 13:26:39;;;;;;;12.90;5.50;;;;;;;9.71;69.68;101108.06;3346823;86;32280;-76
2021/03/23 13:31:43;;;;;;;11.60;5.90;;;;;;;9.91;69.41;101100.09;3338894;86;98846;-75
2021/03/23 13:36:51;;;;;;;12.70;5.50;;;;;;;9.95;68.25;101103.17;3345016;86;31788;-76
2021/03/23 13:41:59;;;;;;;11.27;5.53;;;;;;;9.98;68.28;101108.54;3335267;85;98519;-76
2021/03/23 13:47:00;;;;;;;11.73;4.83;;;;;;;9.78;67.75;101107.66;3344405;86;25987;-76
2021/03/23 13:52:01;;;;;;;16.13;7.00;;;;;;;9.61;68.00;101105.84;3340366;84;98135;-76
2021/03/23 13:57:03;;;;;;;19.90;7.67;;;;;;;9.57;68.13;101103.56;3340382;86;31794;-78
2021/03/23 14:02:04;;;;;;;14.47;7.10;;;;;;;9.40;68.53;101103.34;3336707;86;98576;-76
2021/03/23 14:07:05;;;;;;;16.63;6.60;;;;;;;9.25;68.48;101106.05;3346475;86;31808;-78
2021/03/23 14:12:16;;;;;;;12.00;5.47;;;;;;;9.04;69.25;101114.51;3337161;86;98325;-78
2021/03/23 14:17:25;;;;;;;13.27;6.60;;;;;;;9.00;69.61;101114.97;3337822;85;98747;-77
2021/03/23 14:22:33;;;;;;;15.23;6.90;;;;;;;8.99;69.95;101109.86;3340281;86;31793;-77
2021/03/23 14:27:33;;;;;;;18.02;8.08;;;;;;;8.98;70.15;101114.53;3326179;86;98548;-77
2021/03/23 14:32:34;;;;;;;26.00;13.07;;;;;;;8.95;70.39;101115.81;3234375;89;31755;-76
2021/03/23 14:37:35;;;;;;;19.77;9.50;;;;;;;8.99;70.67;101118.09;3338164;86;98722;-77
2021/03/23 14:42:36;;;;;;;14.47;6.77;;;;;;;8.93;70.38;101120.27;3337390;86;31895;-77
2021/03/23 14:47:36;;;;;;;13.83;6.43;;;;;;;8.87;70.59;101118.92;3334587;86;98607;-77
2021/03/23 14:52:42;;;;;;;13.50;6.63;;;;;;;8.80;70.28;101117.36;3344286;86;32363;-77
2021/03/23 14:57:45;;;;;;;17.12;8.75;;;;;;;8.88;70.69;101121.11;3332981;86;98410;-78
2021/03/23 15:02:46;;;;;;;12.90;5.40;;;;;;;9.01;70.67;101126.77;3338552;86;31740;-78
2021/03/23 15:07:47;;;;;;;12.03;5.33;;;;;;;8.88;70.27;101122.48;3342858;86;98418;-79
2021/03/23 15:12:48;;;;;;;13.47;5.60;;;;;;;8.82;70.54;101119.73;3319093;86;32329;-78
2021/03/23 15:17:49;;;;;;;13.83;6.53;;;;;;;8.71;71.01;101120.80;3312005;86;98374;-78
2021/03/23 15:22:51;;;;;;;14.77;7.30;;;;;;;8.66;71.14;101124.34;3341849;86;31699;-78
2021/03/23 15:27:53;;;;;;;15.73;8.70;;;;;;;8.44;71.39;101137.20;3340257;86;98169;-77
2021/03/23 15:32:54;;;;;;;15.53;7.20;;;;;;;8.44;71.39;101137.20;3343679;86;31743;-78
2021/03/23 15:37:58;;;;;;;17.03;7.40;;;;;;;8.36;71.67;101138.14;3329296;86;99133;-77
2021/03/23 15:42:58;;;;;;;18.17;8.03;;;;;;;8.24;72.00;101148.53;3285802;87;31830;-78
2021/03/23 15:47:59;;;;;;;18.13;9.83;;;;;;;8.25;72.25;101152.09;3328175;86;98250;-78
2021/03/23 15:53:00;;;;;;;18.30;9.07;;;;;;;8.16;72.42;101149.44;3344559;86;31839;-77
2021/03/23 15:58:01;;;;;;;23.27;9.60;;;;;;;8.04;72.58;101154.11;3340225;86;98644;-78
2021/03/23 16:03:03;;;;;;;19.10;9.97;;;;;;;7.96;72.67;101156.41;3333029;86;31737;-78
2021/03/23 16:08:31;;;;;;;17.07;8.53;;;;;;;7.97;72.85;101161.52;3333527;86;98753;-77
2021/03/23 16:13:31;;;;;;;21.87;8.77;;;;;;;8.06;72.99;101160.05;3328279;86;32306;-78
2021/03/23 16:18:32;;;;;;;39.83;17.70;;;;;;;8.13;72.83;101163.82;3312277;86;98870;-77
2021/03/23 16:23:40;;;;;;;24.47;10.83;;;;;;;8.18;72.79;101162.81;3306383;87;31705;-78
2021/03/23 16:28:43;;;;;;;23.98;11.15;;;;;;;8.15;72.68;101167.59;3299180;86;98759;-78
2021/03/23 16:33:44;;;;;;;36.80;18.90;;;;;;;8.09;72.89;101167.59;3301920;88;31874;-78
2021/03/23 16:38:44;;;;;;;19.62;10.53;;;;;;;7.98;72.96;101171.38;3300271;88;98766;-78
2021/03/23 16:43:45;;;;;;;26.23;11.07;;;;;;;7.86;73.29;101174.66;3189550;91;31740;-78
2021/03/23 16:48:47;;;;;;;20.97;10.13;;;;;;;7.74;73.50;101178.76;3300866;86;98343;-78
2021/03/23 16:53:47;;;;;;;22.17;10.37;;;;;;;7.63;73.82;101175.64;3303353;87;32388;-78
2021/03/23 16:58:48;;;;;;;24.13;11.77;;;;;;;7.58;73.92;101179.96;3295900;87;98785;-78
2021/03/23 17:03:49;;;;;;;18.33;10.13;;;;;;;7.47;74.08;101187.59;3295289;88;30928;-78
2021/03/23 17:08:50;;;;;;;22.57;9.47;;;;;;;7.35;74.50;101193.81;3298050;88;98800;-78
2021/03/23 17:13:50;;;;;;;18.50;9.93;;;;;;;7.33;74.77;101188.44;3307709;86;30974;-78
2021/03/23 17:18:51;;;;;;;21.07;10.37;;;;;;;7.36;74.90;101187.20;3320041;85;98742;-78
2021/03/23 17:23:52;;;;;;;18.37;9.27;;;;;;;7.32;75.08;101189.00;3337626;86;35036;-78
2021/03/23 17:28:53;;;;;;;17.43;8.83;;;;;;;7.46;75.06;101201.03;3326750;86;98727;-78
2021/03/23 17:33:54;;;;;;;23.67;10.30;;;;;;;7.59;75.02;101201.32;3334519;86;35517;-78
2021/03/23 17:38:56;;;;;;;18.90;10.83;;;;;;;7.61;74.58;101194.92;3325766;86;98968;-79
2021/03/23 17:43:56;;;;;;;19.23;9.70;;;;;;;7.65;74.31;101211.73;3331639;86;35017;-78
2021/03/23 17:48:57;;;;;;;25.00;11.00;;;;;;;7.65;74.31;101211.73;3334216;86;98743;-78
2021/03/23 17:53:58;;;;;;;28.63;14.43;;;;;;;7.64;74.51;101219.70;3334279;86;35140;-78
2021/03/23 17:58:59;;;;;;;26.13;13.23;;;;;;;7.54;74.49;101223.45;3328916;86;98636;-78
2021/03/23 18:04:00;;;;;;;27.70;15.05;;;;;;;7.51;74.56;101232.32;3337588;86;35756;-78
2021/03/23 18:09:00;;;;;;;27.27;13.87;;;;;;;7.37;74.63;101233.97;3327395;86;98734;-77
2021/03/23 18:14:01;;;;;;;24.90;12.87;;;;;;;7.22;74.83;101240.09;3329527;86;32801;-79
2021/03/23 18:19:02;;;;;;;26.33;12.33;;;;;;;7.12;75.20;101245.15;3309172;86;98680;-82
2021/03/23 18:24:04;;;;;;;28.53;12.67;;;;;;;7.05;75.37;101249.81;3300002;87;32651;-79
2021/03/23 18:29:05;;;;;;;29.53;12.40;;;;;;;6.97;75.64;101253.95;3288730;88;98403;-79
2021/03/23 18:34:08;;;;;;;33.73;16.57;;;;;;;6.93;75.91;101251.08;3292994;88;32745;-80
2021/03/23 18:39:09;;;;;;;39.53;17.40;;;;;;;6.79;76.02;101234.69;3295867;88;98528;-78
2021/03/23 18:44:10;;;;;;;34.83;15.58;;;;;;;7.03;76.13;101253.42;3302345;88;33283;-78
2021/03/23 18:49:10;;;;;;;31.00;13.87;;;;;;;7.01;75.58;101259.00;3290534;88;98834;-78
2021/03/23 18:54:11;;;;;;;26.60;12.40;;;;;;;7.10;75.63;101250.17;3301754;88;32656;-78
2021/03/23 18:59:14;;;;;;;21.50;11.40;;;;;;;7.17;75.41;101264.92;3284274;88;98518;-78
2021/03/23 19:04:15;;;;;;;24.03;12.60;;;;;;;7.16;75.28;101259.78;3299159;88;33196;-79
2021/03/23 19:09:15;;;;;;;25.30;11.60;;;;;;;7.18;74.96;101264.34;3296648;88;98888;-79
2021/03/23 19:14:16;;;;;;;23.60;11.37;;;;;;;7.14;74.83;101257.95;3297842;88;32776;-79
2021/03/23 19:19:17;;;;;;;23.70;11.22;;;;;;;7.10;74.87;101265.22;3311216;86;99071;-79
2021/03/23 19:24:18;;;;;;;22.90;10.67;;;;;;;7.06;74.59;101258.25;3337421;86;32675;-78
2021/03/23 19:29:20;;;;;;;42.67;18.30;;;;;;;7.02;74.54;101271.55;3332300;86;98832;-79
2021/03/23 19:34:21;;;;;;;54.23;20.20;;;;;;;6.88;74.63;101266.91;3340512;86;27480;-78
2021/03/23 19:39:21;;;;;;;40.90;17.37;;;;;;;6.84;74.87;101269.52;3333334;86;98583;-79
2021/03/23 19:44:22;;;;;;;39.73;17.67;;;;;;;6.76;75.13;101268.98;3344185;86;26011;-78
2021/03/23 19:49:23;;;;;;;33.67;15.30;;;;;;;6.71;75.43;101271.91;3331160;86;99103;-78
2021/03/23 19:54:24;;;;;;;21.87;9.87;;;;;;;6.60;75.95;101275.36;3334099;86;26057;-79
2021/03/23 19:59:25;;;;;;;21.13;10.00;;;;;;;6.62;76.03;101279.38;3330424;85;98871;-78
2021/03/23 20:04:26;;;;;;;21.20;10.20;;;;;;;6.72;76.14;101285.03;3335569;86;26585;-78
2021/03/23 20:09:31;;;;;;;23.50;11.03;;;;;;;6.85;76.17;101293.55;3333102;86;98743;-76
2021/03/23 20:14:31;;;;;;;25.03;11.93;;;;;;;6.90;76.03;101285.16;3337302;86;25984;-77
2021/03/23 20:19:31;;;;;;;29.47;14.27;;;;;;;6.95;76.07;101286.33;3336247;86;99045;-78
2021/03/23 20:24:32;;;;;;;33.20;15.33;;;;;;;7.01;75.86;101286.37;3327068;87;26542;-78
2021/03/23 20:29:33;;;;;;;30.93;15.13;;;;;;;6.99;75.94;101287.28;3320402;87;98924;-78
2021/03/23 20:34:34;;;;;;;43.73;21.07;;;;;;;6.99;75.78;101280.44;3320721;87;26038;-79
2021/03/23 20:39:35;;;;;;;43.43;21.90;;;;;;;6.93;75.84;101290.76;3323654;87;98669;-79
2021/03/23 20:44:36;;;;;;;37.47;19.17;;;;;;;6.78;76.00;101284.52;3336498;87;26443;-78
2021/03/23 20:49:37;;;;;;;37.97;21.73;;;;;;;6.64;76.20;101284.49;3317189;87;98638;-80
2021/03/23 20:54:37;;;;;;;32.53;19.87;;;;;;;6.60;76.57;101283.56;3266063;87;33331;-79
2021/03/23 20:59:41;;;;;;;36.03;20.77;;;;;;;6.57;76.70;101288.31;3270889;88;98841;-78
2021/03/23 21:04:41;;;;;;;35.50;18.80;;;;;;;6.55;76.76;101287.27;3275406;88;33406;-79
2021/03/23 21:09:42;;;;;;;33.93;18.30;;;;;;;6.51;76.90;101289.08;3272565;88;98434;-78
2021/03/23 21:14:43;;;;;;;28.60;15.43;;;;;;;6.53;77.07;101295.56;3283756;88;34522;-79
2021/03/23 21:19:44;;;;;;;29.00;14.27;;;;;;;6.57;77.21;101291.05;3279004;88;98956;-77
2021/03/23 21:24:44;;;;;;;27.70;14.10;;;;;;;6.66;77.13;101293.97;3290443;87;33336;-79
2021/03/23 21:29:45;;;;;;;26.70;14.07;;;;;;;6.70;77.12;101296.29;3259416;86;98986;-79
2021/03/23 21:34:46;;;;;;;32.07;16.97;;;;;;;6.74;77.06;101295.88;3275539;87;32905;-77
2021/03/23 21:39:48;;;;;;;29.20;14.90;;;;;;;6.80;76.97;101301.94;3269085;88;99036;-79
2021/03/23 21:44:49;;;;;;;28.40;15.70;;;;;;;6.73;76.90;101298.94;3286168;88;32326;-79
2021/03/23 21:49:50;;;;;;;31.77;15.73;;;;;;;6.60;76.91;101295.30;3284922;87;98919;-79
2021/03/23 21:54:50;;;;;;;28.73;15.13;;;;;;;6.57;77.16;101297.34;3283427;88;34082;-78
2021/03/23 21:59:51;;;;;;;35.10;15.07;;;;;;;6.54;77.15;101296.61;3323633;86;98906;-79
2021/03/23 22:04:52;;;;;;;31.57;15.40;;;;;;;6.45;77.33;101292.32;3329652;86;31759;-79
2021/03/23 22:09:53;;;;;;;29.07;14.60;;;;;;;6.25;77.63;101295.77;3328407;86;98594;-79
2021/03/23 22:14:54;;;;;;;29.20;14.23;;;;;;;6.21;77.87;101295.63;3329768;86;31853;-78
2021/03/23 22:19:55;;;;;;;28.40;13.90;;;;;;;6.20;77.99;101291.29;3335668;86;98942;-79
2021/03/23 22:24:55;;;;;;;27.13;13.50;;;;;;;6.30;78.23;101296.95;3346399;86;35554;-79
2021/03/23 22:29:56;;;;;;;27.43;13.53;;;;;;;6.34;78.31;101295.97;3338892;86;99133;-79
2021/03/23 22:34:57;;;;;;;31.27;15.43;;;;;;;6.34;78.45;101297.33;3351865;86;35085;-79
2021/03/23 22:39:57;;;;;;;29.07;14.50;;;;;;;6.34;78.45;101291.08;3335289;86;99034;-79
2021/03/23 22:44:58;;;;;;;28.03;14.13;;;;;;;6.47;78.40;101288.13;3345328;86;35013;-79
2021/03/23 22:49:59;;;;;;;30.23;16.60;;;;;;;6.53;77.96;101294.20;3288411;88;98766;-79
2021/03/23 22:55:02;;;;;;;28.80;13.93;;;;;;;6.49;77.94;101289.17;3279266;89;35087;-78
2021/03/23 23:00:08;;;;;;;33.02;15.20;;;;;;;6.48;77.90;101284.81;3339175;86;99173;-78
2021/03/23 23:05:10;;;;;;;31.10;14.47;;;;;;;6.38;77.92;101283.83;3344944;86;26550;-78
2021/03/23 23:10:22;;;;;;;28.85;13.48;;;;;;;6.26;77.99;101283.14;3279011;88;98925;-79
2021/03/23 23:15:52;;;;;;;27.37;13.50;;;;;;;6.18;78.39;101289.45;3261938;88;32709;-79
2021/03/23 23:21:10;;;;;;;23.60;11.67;;;;;;;6.07;78.67;101287.39;3224442;89;98345;-79
2021/03/23 23:26:18;;;;;;;26.97;10.50;;;;;;;6.13;78.74;101288.81;3220172;90;32725;-79
2021/03/23 23:31:26;;;;;;;29.82;12.88;;;;;;;6.27;78.76;101282.01;3324931;87;98935;-78
2021/03/23 23:36:28;;;;;;;28.73;12.60;;;;;;;6.45;78.58;101282.20;3334929;86;32791;-78